sensor_id;sensor_type;location;lat;lon;timestamp;pressure;altitude;pressure_sealevel;temperature;humidity
64835;BME280;51293;59.296;18.006;2022-09-09T00:02:27;101871.13;;;9.74;69.55
64835;BME280;51293;59.296;18.006;2022-09-09T00:05:04;101868.06;;;9.77;69.22
64835;BME280;51293;59.296;18.006;2022-09-09T00:07:41;101875.56;;;9.81;69.14
64835;BME280;51293;59.296;18.006;2022-09-09T00:10:29;101866.03;;;9.85;67.23
64835;BME280;51293;59.296;18.006;2022-09-09T00:13:22;101868.97;;;9.91;67.72
64835;BME280;51293;59.296;18.006;2022-09-09T00:15:58;101873.78;;;9.95;67.25
64835;BME280;51293;59.296;18.006;2022-09-09T00:19:18;101874.00;;;10.00;66.43
64835;BME280;51293;59.296;18.006;2022-09-09T00:27:19;101864.09;;;10.14;64.84
64835;BME280;51293;59.296;18.006;2022-09-09T00:32:17;101860.81;;;10.19;64.61
64835;BME280;51293;59.296;18.006;2022-09-09T00:34:56;101853.13;;;10.22;64.29
64835;BME280;51293;59.296;18.006;2022-09-09T00:37:24;101854.22;;;10.28;64.25
64835;BME280;51293;59.296;18.006;2022-09-09T00:39:56;101862.97;;;10.30;64.17
64835;BME280;51293;59.296;18.006;2022-09-09T00:42:25;101855.47;;;10.32;64.28
64835;BME280;51293;59.296;18.006;2022-09-09T00:47:40;101855.09;;;10.41;63.91
64835;BME280;51293;59.296;18.006;2022-09-09T00:50:38;101849.09;;;10.46;63.95
64835;BME280;51293;59.296;18.006;2022-09-09T00:53:30;101847.63;;;10.50;64.00
64835;BME280;51293;59.296;18.006;2022-09-09T00:56:18;101848.69;;;10.56;64.46
64835;BME280;51293;59.296;18.006;2022-09-09T00:59:00;101842.25;;;10.57;64.90
64835;BME280;51293;59.296;18.006;2022-09-09T01:01:32;101839.31;;;10.58;64.62
64835;BME280;51293;59.296;18.006;2022-09-09T01:03:57;101840.59;;;10.62;64.12
64835;BME280;51293;59.296;18.006;2022-09-09T01:06:32;101840.19;;;10.65;64.52
64835;BME280;51293;59.296;18.006;2022-09-09T01:09:21;101836.25;;;10.68;64.63
64835;BME280;51293;59.296;18.006;2022-09-09T01:17:26;101822.06;;;10.73;64.57
64835;BME280;51293;59.296;18.006;2022-09-09T01:23:05;101826.69;;;10.79;64.67
64835;BME280;51293;59.296;18.006;2022-09-09T01:26:08;101823.31;;;10.83;64.64
64835;BME280;51293;59.296;18.006;2022-09-09T01:28:36;101818.34;;;10.80;65.45
64835;BME280;51293;59.296;18.006;2022-09-09T01:31:04;101812.91;;;10.80;65.13
64835;BME280;51293;59.296;18.006;2022-09-09T01:33:31;101820.22;;;10.80;65.06
64835;BME280;51293;59.296;18.006;2022-09-09T01:36:10;101825.63;;;10.80;65.20
64835;BME280;51293;59.296;18.006;2022-09-09T01:38:37;101820.41;;;10.78;65.43
64835;BME280;51293;59.296;18.006;2022-09-09T01:41:03;101830.22;;;10.79;65.80
64835;BME280;51293;59.296;18.006;2022-09-09T01:43:29;101818.53;;;10.79;65.72
64835;BME280;51293;59.296;18.006;2022-09-09T01:45:56;101815.63;;;10.80;65.63
64835;BME280;51293;59.296;18.006;2022-09-09T01:48:24;101820.81;;;10.82;65.83
64835;BME280;51293;59.296;18.006;2022-09-09T01:50:49;101813.13;;;10.85;65.96
64835;BME280;51293;59.296;18.006;2022-09-09T01:53:17;101809.78;;;10.83;66.33
64835;BME280;51293;59.296;18.006;2022-09-09T01:55:54;101807.72;;;10.85;66.28
64835;BME280;51293;59.296;18.006;2022-09-09T02:04:06;101793.75;;;10.95;66.70
64835;BME280;51293;59.296;18.006;2022-09-09T02:06:38;101795.63;;;10.94;66.90
64835;BME280;51293;59.296;18.006;2022-09-09T02:09:06;101792.91;;;10.94;67.19
64835;BME280;51293;59.296;18.006;2022-09-09T02:11:33;101788.34;;;10.95;67.26
64835;BME280;51293;59.296;18.006;2022-09-09T02:14:22;101783.53;;;10.97;67.75
64835;BME280;51293;59.296;18.006;2022-09-09T02:16:59;101785.19;;;10.98;67.93
64835;BME280;51293;59.296;18.006;2022-09-09T02:20:18;101791.06;;;11.02;67.71
64835;BME280;51293;59.296;18.006;2022-09-09T02:22:43;101776.25;;;11.04;67.99
64835;BME280;51293;59.296;18.006;2022-09-09T02:25:12;101782.09;;;11.01;68.33
64835;BME280;51293;59.296;18.006;2022-09-09T02:27:41;101777.69;;;11.07;68.77
64835;BME280;51293;59.296;18.006;2022-09-09T02:30:09;101774.59;;;11.10;68.89
64835;BME280;51293;59.296;18.006;2022-09-09T02:32:36;101771.03;;;11.09;68.93
64835;BME280;51293;59.296;18.006;2022-09-09T02:35:09;101780.19;;;11.08;69.49
64835;BME280;51293;59.296;18.006;2022-09-09T02:37:39;101778.13;;;11.10;69.58
64835;BME280;51293;59.296;18.006;2022-09-09T02:40:06;101774.38;;;11.11;69.80
64835;BME280;51293;59.296;18.006;2022-09-09T02:42:39;101778.53;;;11.14;69.89
64835;BME280;51293;59.296;18.006;2022-09-09T02:45:06;101776.66;;;11.14;69.70
64835;BME280;51293;59.296;18.006;2022-09-09T02:50:14;101777.50;;;11.15;69.83
64835;BME280;51293;59.296;18.006;2022-09-09T02:53:00;101775.59;;;11.15;70.15
64835;BME280;51293;59.296;18.006;2022-09-09T02:55:50;101771.00;;;11.16;70.29
64835;BME280;51293;59.296;18.006;2022-09-09T02:58:21;101769.97;;;11.17;70.07
64835;BME280;51293;59.296;18.006;2022-09-09T03:00:49;101759.13;;;11.17;70.04
64835;BME280;51293;59.296;18.006;2022-09-09T03:03:15;101769.97;;;11.17;70.17
64835;BME280;51293;59.296;18.006;2022-09-09T03:05:43;101763.72;;;11.16;70.89
64835;BME280;51293;59.296;18.006;2022-09-09T03:08:08;101764.16;;;11.20;70.64
64835;BME280;51293;59.296;18.006;2022-09-09T03:10:34;101763.53;;;11.18;70.91
64835;BME280;51293;59.296;18.006;2022-09-09T03:13:00;101757.28;;;11.17;70.87
64835;BME280;51293;59.296;18.006;2022-09-09T03:15:26;101754.75;;;11.16;70.98
64835;BME280;51293;59.296;18.006;2022-09-09T03:17:55;101754.56;;;11.17;71.53
64835;BME280;51293;59.296;18.006;2022-09-09T03:20:22;101754.34;;;11.19;71.52
64835;BME280;51293;59.296;18.006;2022-09-09T03:22:47;101752.25;;;11.21;71.43
64835;BME280;51293;59.296;18.006;2022-09-09T03:25:13;101742.22;;;11.21;71.86
64835;BME280;51293;59.296;18.006;2022-09-09T03:27:38;101749.53;;;11.21;71.98
64835;BME280;51293;59.296;18.006;2022-09-09T03:30:04;101735.38;;;11.19;71.70
64835;BME280;51293;59.296;18.006;2022-09-09T03:32:30;101744.13;;;11.21;72.04
64835;BME280;51293;59.296;18.006;2022-09-09T03:34:56;101742.03;;;11.23;71.88
64835;BME280;51293;59.296;18.006;2022-09-09T03:37:22;101747.66;;;11.21;71.81
64835;BME280;51293;59.296;18.006;2022-09-09T03:39:47;101744.94;;;11.21;72.26
64835;BME280;51293;59.296;18.006;2022-09-09T03:42:14;101741.19;;;11.22;72.06
64835;BME280;51293;59.296;18.006;2022-09-09T03:44:40;101734.31;;;11.20;72.36
64835;BME280;51293;59.296;18.006;2022-09-09T03:47:07;101738.69;;;11.28;71.60
64835;BME280;51293;59.296;18.006;2022-09-09T03:49:32;101731.38;;;11.28;71.77
64835;BME280;51293;59.296;18.006;2022-09-09T03:51:58;101731.16;;;11.30;71.96
64835;BME280;51293;59.296;18.006;2022-09-09T03:54:25;101736.59;;;11.30;71.60
64835;BME280;51293;59.296;18.006;2022-09-09T03:56:50;101729.06;;;11.32;71.04
64835;BME280;51293;59.296;18.006;2022-09-09T03:59:16;101733.25;;;11.34;70.93
64835;BME280;51293;59.296;18.006;2022-09-09T04:01:41;101729.91;;;11.39;70.35
64835;BME280;51293;59.296;18.006;2022-09-09T04:04:07;101725.91;;;11.41;70.34
64835;BME280;51293;59.296;18.006;2022-09-09T04:06:33;101729.28;;;11.43;70.39
64835;BME280;51293;59.296;18.006;2022-09-09T04:08:58;101732.81;;;11.44;70.34
64835;BME280;51293;59.296;18.006;2022-09-09T04:11:23;101725.28;;;11.46;69.82
64835;BME280;51293;59.296;18.006;2022-09-09T04:13:49;101723.41;;;11.46;69.72
64835;BME280;51293;59.296;18.006;2022-09-09T04:16:14;101728.41;;;11.49;69.20
64835;BME280;51293;59.296;18.006;2022-09-09T04:18:40;101730.94;;;11.51;69.11
64835;BME280;51293;59.296;18.006;2022-09-09T04:21:06;101736.13;;;11.52;69.13
64835;BME280;51293;59.296;18.006;2022-09-09T04:23:33;101734.25;;;11.53;69.11
64835;BME280;51293;59.296;18.006;2022-09-09T04:26:00;101736.75;;;11.54;69.44
64835;BME280;51293;59.296;18.006;2022-09-09T04:28:28;101730.69;;;11.59;68.69
64835;BME280;51293;59.296;18.006;2022-09-09T04:30:55;101735.28;;;11.59;68.55
64835;BME280;51293;59.296;18.006;2022-09-09T04:33:23;101731.53;;;11.60;69.26
64835;BME280;51293;59.296;18.006;2022-09-09T04:35:51;101728.00;;;11.59;68.98
64835;BME280;51293;59.296;18.006;2022-09-09T04:38:19;101738.19;;;11.64;68.82
64835;BME280;51293;59.296;18.006;2022-09-09T04:40:48;101733.59;;;11.64;67.42
64835;BME280;51293;59.296;18.006;2022-09-09T04:43:15;101740.28;;;11.68;67.39
64835;BME280;51293;59.296;18.006;2022-09-09T04:45:41;101731.69;;;11.71;66.59
64835;BME280;51293;59.296;18.006;2022-09-09T04:48:07;101735.03;;;11.73;66.67
64835;BME280;51293;59.296;18.006;2022-09-09T04:50:33;101734.81;;;11.75;66.42
64835;BME280;51293;59.296;18.006;2022-09-09T04:53:03;101738.38;;;11.75;66.44
64835;BME280;51293;59.296;18.006;2022-09-09T04:55:30;101733.34;;;11.79;64.76
64835;BME280;51293;59.296;18.006;2022-09-09T04:57:56;101732.09;;;11.81;64.80
64835;BME280;51293;59.296;18.006;2022-09-09T05:00:23;101722.50;;;11.86;63.06
64835;BME280;51293;59.296;18.006;2022-09-09T05:02:48;101732.91;;;11.89;62.96
64835;BME280;51293;59.296;18.006;2022-09-09T05:05:14;101730.81;;;11.91;62.35
64835;BME280;51293;59.296;18.006;2022-09-09T05:07:39;101729.34;;;11.95;62.25
64835;BME280;51293;59.296;18.006;2022-09-09T05:10:05;101738.72;;;11.99;61.04
64835;BME280;51293;59.296;18.006;2022-09-09T05:12:31;101735.81;;;12.00;60.73
64835;BME280;51293;59.296;18.006;2022-09-09T05:14:57;101734.97;;;12.00;60.51
64835;BME280;51293;59.296;18.006;2022-09-09T05:17:23;101735.81;;;12.00;60.82
64835;BME280;51293;59.296;18.006;2022-09-09T05:19:48;101740.56;;;12.05;60.69
64835;BME280;51293;59.296;18.006;2022-09-09T05:22:18;101741.81;;;12.09;59.31
64835;BME280;51293;59.296;18.006;2022-09-09T05:24:44;101745.53;;;12.15;58.40
64835;BME280;51293;59.296;18.006;2022-09-09T05:27:09;101744.22;;;12.24;57.51
64835;BME280;51293;59.296;18.006;2022-09-09T05:29:37;101741.94;;;12.27;58.25
64835;BME280;51293;59.296;18.006;2022-09-09T05:32:03;101740.03;;;12.34;57.79
64835;BME280;51293;59.296;18.006;2022-09-09T05:34:28;101738.09;;;12.42;57.47
64835;BME280;51293;59.296;18.006;2022-09-09T05:36:54;101743.13;;;12.38;57.14
64835;BME280;51293;59.296;18.006;2022-09-09T05:39:19;101739.78;;;12.36;58.18
64835;BME280;51293;59.296;18.006;2022-09-09T05:41:45;101751.88;;;12.40;56.63
64835;BME280;51293;59.296;18.006;2022-09-09T05:44:10;101750.66;;;12.36;56.77
64835;BME280;51293;59.296;18.006;2022-09-09T05:46:35;101755.91;;;12.31;57.42
64835;BME280;51293;59.296;18.006;2022-09-09T05:49:02;101752.78;;;12.34;56.98
64835;BME280;51293;59.296;18.006;2022-09-09T05:51:28;101750.88;;;12.34;56.11
64835;BME280;51293;59.296;18.006;2022-09-09T05:53:55;101747.72;;;12.37;55.10
64835;BME280;51293;59.296;18.006;2022-09-09T05:56:25;101754.81;;;12.38;55.28
64835;BME280;51293;59.296;18.006;2022-09-09T05:58:52;101754.59;;;12.40;55.01
64835;BME280;51293;59.296;18.006;2022-09-09T06:03:45;101756.47;;;12.40;56.14
64835;BME280;51293;59.296;18.006;2022-09-09T06:06:17;101755.66;;;12.39;55.48
64835;BME280;51293;59.296;18.006;2022-09-09T06:08:43;101755.84;;;12.44;55.32
64835;BME280;51293;59.296;18.006;2022-09-09T06:11:17;101759.78;;;12.48;55.86
64835;BME280;51293;59.296;18.006;2022-09-09T06:13:43;101760.53;;;12.62;55.46
64835;BME280;51293;59.296;18.006;2022-09-09T06:16:11;101756.78;;;12.56;54.86
64835;BME280;51293;59.296;18.006;2022-09-09T06:18:37;101748.59;;;12.63;54.56
64835;BME280;51293;59.296;18.006;2022-09-09T06:21:05;101754.84;;;12.70;54.81
64835;BME280;51293;59.296;18.006;2022-09-09T06:23:32;101756.72;;;12.70;54.52
64835;BME280;51293;59.296;18.006;2022-09-09T06:26:10;101748.53;;;12.76;54.51
64835;BME280;51293;59.296;18.006;2022-09-09T06:28:36;101754.31;;;12.86;54.33
64835;BME280;51293;59.296;18.006;2022-09-09T06:31:08;101753.91;;;12.83;54.73
64835;BME280;51293;59.296;18.006;2022-09-09T06:33:36;101747.34;;;12.90;54.23
64835;BME280;51293;59.296;18.006;2022-09-09T06:36:05;101744.59;;;12.97;54.71
64835;BME280;51293;59.296;18.006;2022-09-09T06:38:31;101753.19;;;12.94;53.58
64835;BME280;51293;59.296;18.006;2022-09-09T06:40:59;101748.97;;;12.98;52.74
64835;BME280;51293;59.296;18.006;2022-09-09T06:43:25;101747.03;;;13.05;53.01
64835;BME280;51293;59.296;18.006;2022-09-09T06:46:02;101742.00;;;13.09;53.30
64835;BME280;51293;59.296;18.006;2022-09-09T06:48:28;101747.75;;;13.19;53.10
64835;BME280;51293;59.296;18.006;2022-09-09T06:51:04;101748.09;;;13.29;52.79
64835;BME280;51293;59.296;18.006;2022-09-09T06:53:31;101751.59;;;13.36;51.79
64835;BME280;51293;59.296;18.006;2022-09-09T06:56:21;101753.78;;;13.46;52.44
64835;BME280;51293;59.296;18.006;2022-09-09T06:58:45;101756.00;;;13.56;51.70
64835;BME280;51293;59.296;18.006;2022-09-09T07:01:15;101758.81;;;13.67;51.11
64835;BME280;51293;59.296;18.006;2022-09-09T07:03:46;101756.94;;;13.86;51.11
64835;BME280;51293;59.296;18.006;2022-09-09T07:06:19;101760.47;;;14.05;51.51
64835;BME280;51293;59.296;18.006;2022-09-09T07:08:54;101755.22;;;14.22;49.75
64835;BME280;51293;59.296;18.006;2022-09-09T07:11:21;101756.88;;;14.23;49.93
64835;BME280;51293;59.296;18.006;2022-09-09T07:13:48;101759.06;;;14.32;49.55
64835;BME280;51293;59.296;18.006;2022-09-09T07:16:17;101757.34;;;14.20;49.73
64835;BME280;51293;59.296;18.006;2022-09-09T07:18:43;101760.09;;;14.01;50.18
64835;BME280;51293;59.296;18.006;2022-09-09T07:21:10;101769.03;;;13.90;51.24
64835;BME280;51293;59.296;18.006;2022-09-09T07:23:37;101767.81;;;14.04;49.98
64835;BME280;51293;59.296;18.006;2022-09-09T07:26:11;101777.34;;;13.95;49.15
64835;BME280;51293;59.296;18.006;2022-09-09T07:28:38;101778.19;;;13.77;49.47
64835;BME280;51293;59.296;18.006;2022-09-09T07:31:04;101778.47;;;13.69;49.60
64835;BME280;51293;59.296;18.006;2022-09-09T07:33:32;101781.50;;;13.61;50.69
64835;BME280;51293;59.296;18.006;2022-09-09T07:36:09;101782.72;;;13.65;49.85
64835;BME280;51293;59.296;18.006;2022-09-09T07:38:42;101779.22;;;13.58;49.70
64835;BME280;51293;59.296;18.006;2022-09-09T07:41:12;101775.59;;;13.64;49.72
64835;BME280;51293;59.296;18.006;2022-09-09T07:43:42;101780.84;;;13.66;50.62
64835;BME280;51293;59.296;18.006;2022-09-09T07:46:09;101784.44;;;13.60;50.16
64835;BME280;51293;59.296;18.006;2022-09-09T07:48:36;101758.00;;;13.67;49.86
64835;BME280;51293;59.296;18.006;2022-09-09T07:51:10;101778.66;;;13.74;50.26
64835;BME280;51293;59.296;18.006;2022-09-09T07:53:37;101782.03;;;13.88;50.66
64835;BME280;51293;59.296;18.006;2022-09-09T07:56:12;101768.59;;;13.75;51.01
64835;BME280;51293;59.296;18.006;2022-09-09T07:58:39;101775.53;;;13.71;50.88
64835;BME280;51293;59.296;18.006;2022-09-09T08:01:17;101780.59;;;13.67;52.18
64835;BME280;51293;59.296;18.006;2022-09-09T08:03:47;101782.09;;;13.63;51.47
64835;BME280;51293;59.296;18.006;2022-09-09T08:06:17;101779.84;;;13.60;50.66
64835;BME280;51293;59.296;18.006;2022-09-09T08:08:43;101778.22;;;13.53;51.53
64835;BME280;51293;59.296;18.006;2022-09-09T08:11:14;101779.44;;;13.57;50.07
64835;BME280;51293;59.296;18.006;2022-09-09T08:13:40;101783.16;;;13.62;49.51
64835;BME280;51293;59.296;18.006;2022-09-09T08:16:15;101777.13;;;13.78;48.01
64835;BME280;51293;59.296;18.006;2022-09-09T08:18:41;101791.13;;;14.00;47.39
64835;BME280;51293;59.296;18.006;2022-09-09T08:21:11;101789.88;;;14.15;47.38
64835;BME280;51293;59.296;18.006;2022-09-09T08:23:38;101792.97;;;14.37;48.15
64835;BME280;51293;59.296;18.006;2022-09-09T08:26:17;101794.97;;;14.89;47.06
64835;BME280;51293;59.296;18.006;2022-09-09T08:28:44;101794.97;;;15.66;46.54
64835;BME280;51293;59.296;18.006;2022-09-09T08:31:12;101796.88;;;15.66;44.61
64835;BME280;51293;59.296;18.006;2022-09-09T08:33:39;101797.97;;;15.11;45.06
64835;BME280;51293;59.296;18.006;2022-09-09T08:36:10;101797.16;;;15.11;45.91
64835;BME280;51293;59.296;18.006;2022-09-09T08:38:36;101792.78;;;15.33;44.35
64835;BME280;51293;59.296;18.006;2022-09-09T08:55:10;101801.94;;;14.74;49.42
64835;BME280;51293;59.296;18.006;2022-09-09T08:57:38;101787.94;;;15.24;48.99
64835;BME280;51293;59.296;18.006;2022-09-09T09:00:04;101786.00;;;15.36;48.88
64835;BME280;51293;59.296;18.006;2022-09-09T09:02:40;101777.22;;;15.10;48.03
64835;BME280;51293;59.296;18.006;2022-09-09T09:10:15;101792.34;;;14.83;48.15
64835;BME280;51293;59.296;18.006;2022-09-09T09:12:45;101790.94;;;14.92;47.15
64835;BME280;51293;59.296;18.006;2022-09-09T09:15:26;101796.00;;;15.54;46.19
64835;BME280;51293;59.296;18.006;2022-09-09T09:17:55;101793.69;;;16.09;44.26
64835;BME280;51293;59.296;18.006;2022-09-09T09:20:32;101786.97;;;16.69;43.30
64835;BME280;51293;59.296;18.006;2022-09-09T09:23:01;101791.63;;;16.85;42.17
64835;BME280;51293;59.296;18.006;2022-09-09T09:25:35;101770.94;;;17.06;40.21
64835;BME280;51293;59.296;18.006;2022-09-09T09:28:18;101792.75;;;16.44;42.24
64835;BME280;51293;59.296;18.006;2022-09-09T09:31:04;101793.00;;;16.14;43.83
64835;BME280;51293;59.296;18.006;2022-09-09T09:36:07;101788.19;;;15.81;45.53
64835;BME280;51293;59.296;18.006;2022-09-09T09:38:33;101789.13;;;15.75;45.72
64835;BME280;51293;59.296;18.006;2022-09-09T09:40:59;101792.91;;;15.50;46.13
64835;BME280;51293;59.296;18.006;2022-09-09T09:45:55;101789.44;;;15.20;47.47
64835;BME280;51293;59.296;18.006;2022-09-09T09:48:20;101788.84;;;15.17;47.04
64835;BME280;51293;59.296;18.006;2022-09-09T09:51:09;101777.00;;;15.35;46.16
64835;BME280;51293;59.296;18.006;2022-09-09T09:53:40;101771.88;;;15.39;46.89
64835;BME280;51293;59.296;18.006;2022-09-09T09:56:09;101772.38;;;15.24;47.23
64835;BME280;51293;59.296;18.006;2022-09-09T10:04:01;101758.03;;;15.40;45.87
64835;BME280;51293;59.296;18.006;2022-09-09T10:06:35;101757.06;;;15.23;46.23
64835;BME280;51293;59.296;18.006;2022-09-09T10:09:23;101750.66;;;15.17;47.13
64835;BME280;51293;59.296;18.006;2022-09-09T10:14:30;101756.09;;;15.29;47.41
64835;BME280;51293;59.296;18.006;2022-09-09T10:19:43;101752.78;;;15.27;46.89
64835;BME280;51293;59.296;18.006;2022-09-09T10:22:33;101742.34;;;15.36;46.39
64835;BME280;51293;59.296;18.006;2022-09-09T10:27:49;101741.41;;;15.65;45.84
64835;BME280;51293;59.296;18.006;2022-09-09T10:33:09;101755.41;;;15.34;46.80
64835;BME280;51293;59.296;18.006;2022-09-09T10:35:39;101753.38;;;15.17;47.43
64835;BME280;51293;59.296;18.006;2022-09-09T10:38:29;101745.78;;;15.20;48.54
64835;BME280;51293;59.296;18.006;2022-09-09T10:46:20;101749.94;;;15.57;47.08
64835;BME280;51293;59.296;18.006;2022-09-09T10:49:10;101750.44;;;15.66;45.54
64835;BME280;51293;59.296;18.006;2022-09-09T10:52:02;101751.59;;;15.82;45.20
64835;BME280;51293;59.296;18.006;2022-09-09T10:57:41;101751.59;;;15.70;44.83
64835;BME280;51293;59.296;18.006;2022-09-09T11:02:40;101745.19;;;16.16;43.74
64835;BME280;51293;59.296;18.006;2022-09-09T11:05:18;101755.44;;;16.09;45.05
64835;BME280;51293;59.296;18.006;2022-09-09T11:07:55;101750.22;;;16.08;44.21
64835;BME280;51293;59.296;18.006;2022-09-09T11:10:40;101737.56;;;16.18;44.19
64835;BME280;51293;59.296;18.006;2022-09-09T11:13:15;101746.13;;;16.50;44.07
64835;BME280;51293;59.296;18.006;2022-09-09T11:15:46;101740.56;;;16.74;44.44
64835;BME280;51293;59.296;18.006;2022-09-09T11:18:20;101735.41;;;16.94;43.99
64835;BME280;51293;59.296;18.006;2022-09-09T11:20:55;101739.47;;;16.75;43.54
64835;BME280;51293;59.296;18.006;2022-09-09T11:23:28;101741.66;;;16.61;44.37
64835;BME280;51293;59.296;18.006;2022-09-09T11:26:01;101735.19;;;16.50;44.77
64835;BME280;51293;59.296;18.006;2022-09-09T11:37:45;101733.88;;;18.68;41.27
64835;BME280;51293;59.296;18.006;2022-09-09T11:40:34;101726.78;;;19.04;41.06
64835;BME280;51293;59.296;18.006;2022-09-09T11:43:00;101723.13;;;19.36;39.84
64835;BME280;51293;59.296;18.006;2022-09-09T11:45:28;101715.63;;;18.84;40.13
64835;BME280;51293;59.296;18.006;2022-09-09T11:47:59;101732.75;;;18.15;41.45
64835;BME280;51293;59.296;18.006;2022-09-09T11:52:51;101718.94;;;18.86;40.16
64835;BME280;51293;59.296;18.006;2022-09-09T11:55:30;101727.22;;;18.64;40.80
64835;BME280;51293;59.296;18.006;2022-09-09T12:00:44;101703.97;;;19.46;40.29
64835;BME280;51293;59.296;18.006;2022-09-09T12:03:43;101716.97;;;19.61;39.17
64835;BME280;51293;59.296;18.006;2022-09-09T12:06:26;101715.13;;;18.87;40.05
64835;BME280;51293;59.296;18.006;2022-09-09T12:09:09;101708.00;;;19.28;40.21
64835;BME280;51293;59.296;18.006;2022-09-09T12:11:38;101719.25;;;19.74;39.65
64835;BME280;51293;59.296;18.006;2022-09-09T12:14:04;101712.59;;;20.28;38.95
64835;BME280;51293;59.296;18.006;2022-09-09T12:16:36;101710.38;;;20.40;38.53
64835;BME280;51293;59.296;18.006;2022-09-09T12:19:23;101710.28;;;19.99;38.73
64835;BME280;51293;59.296;18.006;2022-09-09T12:21:56;101710.84;;;19.49;40.21
64835;BME280;51293;59.296;18.006;2022-09-09T12:24:42;101704.03;;;18.77;41.00
64835;BME280;51293;59.296;18.006;2022-09-09T12:30:14;101698.41;;;18.94;41.05
64835;BME280;51293;59.296;18.006;2022-09-09T12:32:40;101690.16;;;19.31;41.76
64835;BME280;51293;59.296;18.006;2022-09-09T12:35:20;101703.63;;;19.80;39.50
64835;BME280;51293;59.296;18.006;2022-09-09T12:37:51;101709.84;;;19.60;39.76
64835;BME280;51293;59.296;18.006;2022-09-09T12:40:22;101709.63;;;19.77;40.22
64835;BME280;51293;59.296;18.006;2022-09-09T12:42:47;101705.34;;;20.01;39.56
64835;BME280;51293;59.296;18.006;2022-09-09T12:45:24;101699.88;;;20.16;38.58
64835;BME280;51293;59.296;18.006;2022-09-09T12:48:03;101703.44;;;19.49;40.08
64835;BME280;51293;59.296;18.006;2022-09-09T12:50:33;101695.16;;;19.39;40.95
64835;BME280;51293;59.296;18.006;2022-09-09T12:53:24;101692.72;;;20.05;38.92
64835;BME280;51293;59.296;18.006;2022-09-09T12:56:03;101701.91;;;19.63;38.52
64835;BME280;51293;59.296;18.006;2022-09-09T12:58:30;101702.97;;;19.57;38.78
64835;BME280;51293;59.296;18.006;2022-09-09T13:01:00;101694.94;;;18.71;40.70
64835;BME280;51293;59.296;18.006;2022-09-09T13:03:31;101695.09;;;18.06;42.68
64835;BME280;51293;59.296;18.006;2022-09-09T13:05:59;101691.34;;;17.90;42.54
64835;BME280;51293;59.296;18.006;2022-09-09T13:08:35;101699.06;;;18.20;43.06
64835;BME280;51293;59.296;18.006;2022-09-09T13:11:03;101688.84;;;18.37;42.81
64835;BME280;51293;59.296;18.006;2022-09-09T13:13:34;101688.72;;;18.86;42.51
64835;BME280;51293;59.296;18.006;2022-09-09T13:16:01;101683.03;;;19.35;40.77
64835;BME280;51293;59.296;18.006;2022-09-09T13:18:29;101676.13;;;19.85;39.50
64835;BME280;51293;59.296;18.006;2022-09-09T13:20:56;101684.22;;;20.27;38.97
64835;BME280;51293;59.296;18.006;2022-09-09T13:23:27;101671.06;;;20.50;38.30
64835;BME280;51293;59.296;18.006;2022-09-09T13:26:04;101674.31;;;21.38;37.28
64835;BME280;51293;59.296;18.006;2022-09-09T13:28:31;101670.50;;;21.14;37.30
64835;BME280;51293;59.296;18.006;2022-09-09T13:31:05;101673.25;;;20.37;38.08
64835;BME280;51293;59.296;18.006;2022-09-09T13:33:36;101677.88;;;19.49;39.44
64835;BME280;51293;59.296;18.006;2022-09-09T13:38:32;101676.16;;;19.32;40.67
64835;BME280;51293;59.296;18.006;2022-09-09T13:41:05;101682.88;;;19.09;40.00
64835;BME280;51293;59.296;18.006;2022-09-09T13:43:37;101680.22;;;18.83;41.36
64835;BME280;51293;59.296;18.006;2022-09-09T13:46:37;101678.47;;;18.44;41.92
64835;BME280;51293;59.296;18.006;2022-09-09T13:51:46;101664.44;;;18.68;41.52
64835;BME280;51293;59.296;18.006;2022-09-09T13:54:16;101667.72;;;19.49;39.82
64835;BME280;51293;59.296;18.006;2022-09-09T13:56:43;101675.38;;;20.05;39.02
64835;BME280;51293;59.296;18.006;2022-09-09T13:59:16;101671.38;;;20.94;36.39
64835;BME280;51293;59.296;18.006;2022-09-09T14:01:44;101661.72;;;20.86;36.55
64835;BME280;51293;59.296;18.006;2022-09-09T14:04:10;101670.22;;;21.00;36.28
64835;BME280;51293;59.296;18.006;2022-09-09T14:06:36;101669.94;;;21.01;36.05
64835;BME280;51293;59.296;18.006;2022-09-09T14:09:05;101658.91;;;21.32;35.13
64835;BME280;51293;59.296;18.006;2022-09-09T14:11:31;101661.72;;;20.76;36.54
64835;BME280;51293;59.296;18.006;2022-09-09T14:13:56;101652.59;;;21.06;36.24
64835;BME280;51293;59.296;18.006;2022-09-09T14:16:22;101660.25;;;21.45;35.49
64835;BME280;51293;59.296;18.006;2022-09-09T14:18:48;101657.00;;;21.12;36.54
64835;BME280;51293;59.296;18.006;2022-09-09T14:21:14;101656.72;;;21.19;36.11
64835;BME280;51293;59.296;18.006;2022-09-09T14:23:41;101666.34;;;21.16;36.22
64835;BME280;51293;59.296;18.006;2022-09-09T14:26:07;101661.41;;;21.08;35.57
64835;BME280;51293;59.296;18.006;2022-09-09T14:28:32;101656.50;;;20.74;36.26
64835;BME280;51293;59.296;18.006;2022-09-09T14:31:02;101661.19;;;20.54;36.59
64835;BME280;51293;59.296;18.006;2022-09-09T14:33:29;101661.41;;;20.32;37.41
64835;BME280;51293;59.296;18.006;2022-09-09T14:35:59;101662.38;;;19.75;37.50
64835;BME280;51293;59.296;18.006;2022-09-09T14:38:28;101663.03;;;18.97;39.56
64835;BME280;51293;59.296;18.006;2022-09-09T14:40:54;101657.94;;;18.47;40.43
64835;BME280;51293;59.296;18.006;2022-09-09T14:43:19;101657.38;;;18.18;41.50
64835;BME280;51293;59.296;18.006;2022-09-09T14:45:46;101668.50;;;18.06;41.76